createdAt,value
2019-04-21T00:02:32.385Z,25.03
2019-04-21T00:05:20.028Z,27.17
2019-04-21T00:07:49.096Z,26.90
2019-04-21T00:10:18.415Z,27.33
2019-04-21T00:12:45.925Z,27.07
2019-04-21T00:15:12.177Z,27.87
2019-04-21T00:17:31.667Z,27.17
2019-04-21T00:20:13.797Z,27.20
2019-04-21T00:22:44.337Z,29.80
2019-04-21T00:25:21.055Z,26.90
2019-04-21T00:27:55.208Z,27.87
2019-04-21T00:30:32.928Z,26.40
2019-04-21T00:32:50.302Z,25.70
2019-04-21T00:35:13.366Z,25.20
2019-04-21T00:38:08.984Z,26.87
2019-04-21T00:40:27.774Z,26.27
2019-04-21T00:42:59.896Z,26.90
2019-04-21T00:45:26.558Z,28.37
2019-04-21T00:48:04.045Z,28.57
2019-04-21T00:50:40.624Z,25.60
2019-04-21T00:53:10.517Z,26.33
2019-04-21T00:55:48.634Z,27.17
2019-04-21T00:58:17.542Z,29.27
2019-04-21T01:00:46.383Z,28.80
2019-04-21T01:03:20.616Z,31.03
2019-04-21T01:05:51.715Z,28.03
2019-04-21T01:08:17.650Z,30.57
2019-04-21T01:10:38.561Z,30.87
2019-04-21T01:13:23.601Z,28.57
2019-04-21T01:15:51.491Z,28.47
2019-04-21T01:18:16.771Z,31.07
2019-04-21T01:20:27.493Z,30.00
2019-04-21T01:22:56.240Z,30.27
2019-04-21T01:25:34.885Z,32.83
2019-04-21T01:28:13.520Z,30.20
2019-04-21T01:30:48.878Z,30.70
2019-04-21T01:33:24.667Z,30.73
2019-04-21T01:35:48.490Z,28.33
2019-04-21T01:38:21.652Z,27.80
2019-04-21T01:40:46.677Z,30.47
2019-04-21T01:43:17.630Z,30.03
2019-04-21T01:45:49.385Z,29.63
2019-04-21T01:48:18.446Z,30.27
2019-04-21T01:50:48.306Z,32.67
2019-04-21T01:53:34.786Z,34.17
2019-04-21T01:56:18.400Z,34.23
2019-04-21T01:58:40.247Z,31.50
2019-04-21T02:01:25.543Z,31.50
2019-04-21T02:04:07.241Z,29.27
2019-04-21T02:06:27.682Z,31.73
2019-04-21T02:08:53.203Z,30.43
2019-04-21T02:11:32.778Z,33.13
2019-04-21T02:14:04.731Z,35.20
2019-04-21T02:16:32.720Z,29.83
2019-04-21T02:18:55.584Z,31.40
2019-04-21T02:21:21.681Z,29.40
2019-04-21T02:24:05.049Z,32.77
2019-04-21T02:26:28.560Z,28.10
2019-04-21T02:29:00.187Z,31.50
2019-04-21T02:31:57.081Z,32.20
2019-04-21T02:34:06.419Z,29.93
2019-04-21T02:36:52.914Z,29.63
2019-04-21T02:39:13.263Z,36.30
2019-04-21T02:41:51.694Z,31.63
2019-04-21T02:44:21.734Z,36.97
2019-04-21T02:46:46.299Z,36.70
2019-04-21T02:49:22.842Z,35.23
2019-04-21T02:51:42.577Z,34.73
2019-04-21T02:54:41.738Z,34.30
2019-04-21T02:56:48.702Z,36.00
2019-04-21T02:59:17.248Z,33.03
2019-04-21T03:02:03.611Z,32.80
2019-04-21T03:04:43.096Z,30.43
2019-04-21T03:07:13.234Z,29.63
2019-04-21T03:09:37.044Z,30.53
2019-04-21T03:17:14.265Z,30.40
2019-04-21T03:19:53.724Z,28.57
2019-04-21T03:22:57.617Z,29.97
2019-04-21T03:29:57.114Z,27.47
2019-04-21T03:35:19.342Z,30.00
2019-04-21T03:39:56.814Z,25.23
2019-04-21T03:42:25.645Z,25.87
2019-04-21T03:44:45.334Z,27.93
2019-04-21T03:47:24.968Z,29.03
2019-04-21T03:49:54.582Z,26.10
2019-04-21T03:52:19.856Z,28.10
2019-04-21T03:55:50.425Z,26.90
2019-04-21T03:58:13.096Z,26.13
2019-04-21T04:03:10.579Z,25.13
2019-04-21T04:08:17.927Z,25.23
2019-04-21T04:10:36.475Z,25.47
2019-04-21T04:13:09.583Z,25.63
2019-04-21T04:18:04.330Z,26.47
2019-04-21T04:20:35.585Z,26.07
2019-04-21T04:23:24.942Z,25.20
2019-04-21T04:25:37.476Z,26.47
2019-04-21T04:30:43.684Z,27.47
2019-04-21T04:33:08.037Z,26.10
2019-04-21T04:35:52.850Z,27.50
2019-04-21T04:38:30.102Z,27.70
2019-04-21T04:40:57.828Z,27.57
2019-04-21T04:43:26.884Z,27.13
2019-04-21T04:45:53.683Z,27.47
2019-04-21T04:48:27.910Z,26.67
2019-04-21T04:53:43.978Z,28.17
2019-04-21T04:58:54.614Z,27.87
2019-04-21T05:01:21.489Z,26.73
2019-04-21T05:03:44.497Z,26.93
2019-04-21T05:06:38.867Z,29.37
2019-04-21T05:11:40.204Z,27.17
2019-04-21T05:13:55.006Z,27.57
2019-04-21T05:16:37.007Z,29.37
2019-04-21T05:19:06.388Z,29.20
2019-04-21T05:21:30.180Z,28.60
2019-04-21T05:23:48.391Z,30.73
2019-04-21T05:26:09.907Z,28.23
2019-04-21T05:28:41.964Z,28.70
2019-04-21T05:31:19.872Z,29.57
2019-04-21T05:33:54.327Z,28.97
2019-04-21T05:36:39.121Z,27.73
2019-04-21T05:39:14.752Z,29.17
2019-04-21T05:41:38.604Z,28.33
2019-04-21T05:44:21.350Z,27.57
2019-04-21T05:46:59.441Z,28.20
2019-04-21T05:49:25.298Z,25.97
2019-04-21T05:51:58.473Z,26.70
2019-04-21T05:57:05.761Z,26.43
2019-04-21T05:59:40.480Z,26.33
2019-04-21T06:02:20.908Z,26.87
2019-04-21T06:05:02.030Z,27.43
2019-04-21T06:07:13.682Z,26.87
2019-04-21T06:09:48.855Z,26.77
2019-04-21T06:12:08.734Z,29.13
2019-04-21T06:14:45.283Z,26.87
2019-04-21T06:17:19.393Z,27.57
2019-04-21T06:22:10.427Z,27.20
2019-04-21T06:24:54.260Z,31.10
2019-04-21T06:27:18.925Z,30.57
2019-04-21T06:29:46.615Z,30.20
2019-04-21T06:32:30.476Z,30.03
2019-04-21T06:35:00.729Z,28.67
2019-04-21T06:40:03.187Z,28.10
2019-04-21T06:42:14.993Z,29.67
2019-04-21T06:44:53.767Z,27.10
2019-04-21T06:47:26.537Z,26.27
2019-04-21T06:49:45.652Z,26.37
2019-04-21T06:52:42.308Z,25.00
2019-04-21T06:57:21.759Z,27.10
2019-04-21T06:59:43.433Z,24.37
2019-04-21T07:02:36.157Z,26.43
2019-04-21T07:04:54.738Z,25.80
2019-04-21T07:07:21.732Z,26.03
2019-04-21T07:09:55.080Z,26.70
2019-04-21T07:12:18.843Z,24.73
2019-04-21T07:14:52.781Z,25.00
2019-04-21T07:17:24.671Z,25.87
2019-04-21T07:19:57.431Z,25.50
2019-04-21T07:22:24.571Z,23.07
2019-04-21T07:25:00.704Z,23.60
2019-04-21T07:27:33.899Z,26.40
2019-04-21T07:29:58.248Z,22.80
2019-04-21T07:32:27.787Z,24.87
2019-04-21T07:34:57.662Z,24.03
2019-04-21T07:37:23.996Z,23.83
2019-04-21T07:39:57.434Z,23.37
2019-04-21T07:42:24.103Z,23.27
2019-04-21T07:44:54.792Z,25.60
2019-04-21T07:47:28.397Z,24.00
2019-04-21T07:50:04.972Z,23.83
2019-04-21T07:52:55.374Z,24.80
2019-04-21T07:57:31.388Z,22.90
2019-04-21T08:00:22.693Z,23.57
2019-04-21T08:02:34.010Z,23.90
2019-04-21T08:05:13.485Z,27.40
2019-04-21T08:07:49.254Z,26.97
2019-04-21T08:10:03.152Z,26.85
2019-04-21T08:12:37.981Z,24.97
2019-04-21T08:15:15.490Z,24.73
2019-04-21T08:17:41.516Z,28.30
2019-04-21T08:20:11.386Z,26.40
2019-04-21T08:22:46.560Z,25.80
2019-04-21T08:25:11.792Z,25.27
2019-04-21T08:27:47.829Z,25.40
2019-04-21T08:30:11.570Z,25.68
2019-04-21T08:32:57.581Z,26.37
2019-04-21T08:35:37.925Z,23.57
2019-04-21T08:37:46.083Z,25.50
2019-04-21T08:40:23.444Z,26.35
2019-04-21T08:42:49.098Z,26.40
2019-04-21T08:45:15.137Z,25.15
2019-04-21T08:47:47.432Z,24.10
2019-04-21T08:50:15.313Z,25.23
2019-04-21T08:52:49.265Z,25.17
2019-04-21T08:55:25.273Z,26.62
2019-04-21T08:58:15.527Z,26.50
2019-04-21T09:00:46.784Z,26.62
2019-04-21T09:03:23.443Z,25.00
2019-04-21T09:06:03.997Z,25.48
2019-04-21T09:08:28.141Z,23.92
2019-04-21T09:10:56.065Z,24.32
2019-04-21T09:13:24.829Z,22.80
2019-04-21T09:15:54.890Z,22.13
2019-04-21T09:18:22.865Z,21.57
2019-04-21T09:20:59.960Z,24.20
2019-04-21T09:23:26.129Z,22.45
2019-04-21T09:26:07.353Z,24.67
2019-04-21T09:28:27.222Z,24.50
2019-04-21T09:30:51.979Z,27.00
2019-04-21T09:33:18.429Z,24.57
2019-04-21T09:35:55.532Z,25.32
2019-04-21T09:38:28.804Z,24.63
2019-04-21T09:40:51.333Z,26.12
2019-04-21T09:43:29.434Z,26.10
2019-04-21T09:45:49.645Z,25.92
2019-04-21T09:48:21.094Z,24.65
2019-04-21T09:50:50.334Z,24.18
2019-04-21T09:53:26.869Z,22.13
2019-04-21T09:55:55.880Z,24.35
2019-04-21T09:58:29.269Z,23.00
2019-04-21T10:01:01.119Z,21.50
2019-04-21T10:03:21.246Z,22.95
2019-04-21T10:05:51.858Z,21.93
2019-04-21T10:08:20.924Z,21.68
2019-04-21T10:10:49.670Z,21.37
2019-04-21T10:13:18.444Z,20.43
2019-04-21T10:15:48.930Z,21.73
2019-04-21T10:18:21.823Z,19.65
2019-04-21T10:20:51.265Z,20.35
2019-04-21T10:23:21.149Z,19.90
2019-04-21T10:25:50.597Z,19.27
2019-04-21T10:28:19.477Z,21.17
2019-04-21T10:30:48.984Z,20.23
2019-04-21T10:33:18.575Z,20.52
2019-04-21T10:35:48.831Z,19.23
2019-04-21T10:38:28.029Z,20.60
2019-04-21T10:40:49.623Z,18.25
2019-04-21T10:43:21.871Z,19.57
2019-04-21T10:45:48.920Z,19.23
2019-04-21T10:48:18.917Z,20.02
2019-04-21T10:50:47.697Z,17.30
2019-04-21T10:53:18.813Z,18.40
2019-04-21T10:56:00.415Z,20.23
2019-04-21T10:58:22.744Z,18.73
2019-04-21T11:00:54.156Z,19.62
2019-04-21T11:03:25.136Z,18.00
2019-04-21T11:05:58.919Z,20.27
2019-04-21T11:08:32.360Z,19.32
2019-04-21T11:10:58.559Z,19.15
2019-04-21T11:13:28.349Z,18.82
2019-04-21T11:15:57.295Z,19.73
2019-04-21T11:18:26.073Z,18.45
2019-04-21T11:20:55.193Z,22.05
2019-04-21T11:23:25.045Z,23.98
2019-04-21T11:25:54.010Z,20.25
2019-04-21T11:28:22.979Z,23.18
2019-04-21T11:30:53.074Z,26.55
2019-04-21T11:33:22.840Z,26.80
2019-04-21T11:35:53.157Z,26.90
2019-04-21T11:38:31.901Z,26.27
2019-04-21T11:41:00.129Z,26.55
2019-04-21T11:43:28.853Z,26.60
2019-04-21T11:45:58.144Z,27.35
2019-04-21T11:48:28.561Z,25.62
2019-04-21T11:50:59.159Z,25.35
2019-04-21T11:53:28.739Z,25.45
2019-04-21T11:55:58.749Z,25.30
2019-04-21T11:58:27.849Z,27.25
2019-04-21T12:01:00.012Z,25.20
2019-04-21T12:03:29.518Z,23.65
2019-04-21T12:05:59.502Z,25.40
2019-04-21T12:08:36.469Z,24.35
2019-04-21T12:10:59.736Z,23.05
2019-04-21T12:13:29.918Z,22.48
2019-04-21T12:15:59.083Z,22.05
2019-04-21T12:18:30.020Z,21.77
2019-04-21T12:20:58.470Z,20.82
2019-04-21T12:23:27.320Z,19.95
2019-04-21T12:25:56.993Z,22.98
2019-04-21T12:28:26.043Z,23.20
2019-04-21T12:30:55.973Z,23.40
2019-04-21T12:33:36.256Z,21.05
2019-04-21T12:36:06.161Z,23.02
2019-04-21T12:38:42.749Z,21.07
2019-04-21T12:41:06.551Z,21.17
2019-04-21T12:43:36.875Z,21.00
2019-04-21T12:46:05.818Z,21.40
2019-04-21T12:48:35.738Z,20.97
2019-04-21T12:51:06.085Z,20.17
2019-04-21T12:53:35.930Z,20.43
2019-04-21T12:56:05.426Z,20.43
2019-04-21T12:58:35.276Z,20.77
2019-04-21T13:01:05.049Z,20.50
2019-04-21T13:03:34.144Z,20.40
2019-04-21T13:06:03.464Z,19.48
2019-04-21T13:08:41.529Z,21.95
2019-04-21T13:11:02.752Z,19.12
2019-04-21T13:13:32.206Z,20.12
2019-04-21T13:16:01.206Z,19.70
2019-04-21T13:18:31.181Z,19.37
2019-04-21T13:21:02.100Z,20.43
2019-04-21T13:23:31.294Z,21.25
2019-04-21T13:26:03.121Z,20.65
2019-04-21T13:28:30.504Z,18.92
2019-04-21T13:31:00.189Z,19.48
2019-04-21T13:33:29.282Z,18.62
2019-04-21T13:35:59.264Z,18.45
2019-04-21T13:38:36.367Z,18.98
2019-04-21T13:41:22.794Z,19.12
2019-04-21T13:43:37.102Z,19.40
2019-04-21T13:46:06.173Z,19.30
2019-04-21T13:48:34.950Z,20.05
2019-04-21T13:51:04.923Z,19.57
2019-04-21T13:53:34.916Z,19.05
2019-04-21T13:56:04.800Z,17.75
2019-04-21T13:58:34.572Z,18.00
2019-04-21T14:01:03.668Z,18.90
2019-04-21T14:03:33.402Z,18.77
2019-04-21T14:06:02.538Z,17.25
2019-04-21T14:08:31.427Z,21.02
2019-04-21T14:11:00.152Z,19.67
2019-04-21T14:13:30.295Z,18.90
2019-04-21T14:16:00.172Z,18.90
2019-04-21T14:18:28.957Z,19.62
2019-04-21T14:20:57.785Z,19.70
2019-04-21T14:23:33.603Z,18.60
2019-04-21T14:25:57.522Z,21.37
2019-04-21T14:28:26.337Z,20.75
2019-04-21T14:30:56.444Z,20.30
2019-04-21T14:33:25.709Z,19.87
2019-04-21T14:35:54.812Z,19.60
2019-04-21T14:38:24.941Z,18.32
2019-04-21T14:40:54.385Z,20.05
2019-04-21T14:43:23.755Z,18.62
2019-04-21T14:46:06.465Z,18.67
2019-04-21T14:48:43.162Z,18.62
2019-04-21T14:51:31.596Z,18.52
2019-04-21T14:54:02.090Z,19.92
2019-04-21T14:56:31.307Z,17.65
2019-04-21T14:59:01.361Z,18.00
2019-04-21T15:01:31.536Z,19.48
2019-04-21T15:04:01.548Z,18.62
2019-04-21T15:06:31.491Z,17.70
2019-04-21T15:09:00.915Z,17.92
2019-04-21T15:11:29.934Z,18.25
2019-04-21T15:13:59.768Z,17.07
2019-04-21T15:16:29.092Z,18.60
2019-04-21T15:18:58.907Z,17.30
2019-04-21T15:21:29.015Z,18.12
2019-04-21T15:23:58.209Z,17.60
2019-04-21T15:26:28.325Z,18.82
2019-04-21T15:28:57.314Z,17.57
2019-04-21T15:31:30.520Z,17.73
2019-04-21T15:33:57.108Z,17.20
2019-04-21T15:36:27.243Z,18.92
2019-04-21T15:38:56.208Z,17.30
2019-04-21T15:41:24.924Z,18.48
2019-04-21T15:43:54.375Z,17.77
2019-04-21T15:46:23.236Z,18.57
2019-04-21T15:48:52.982Z,17.40
2019-04-21T15:51:22.029Z,17.12
2019-04-21T15:53:51.997Z,18.70
2019-04-21T15:56:22.695Z,19.25
2019-04-21T15:58:59.116Z,21.10
2019-04-21T16:01:30.372Z,21.27
2019-04-21T16:04:02.106Z,20.40
2019-04-21T16:06:29.706Z,18.77
2019-04-21T16:09:00.962Z,17.85
2019-04-21T16:11:28.866Z,15.83
2019-04-21T16:13:57.711Z,19.35
2019-04-21T16:16:28.583Z,18.05
2019-04-21T16:18:58.274Z,16.55
2019-04-21T16:21:27.195Z,18.82
2019-04-21T16:23:56.469Z,18.85
2019-04-21T16:26:26.656Z,19.20
2019-04-21T16:28:55.715Z,18.73
2019-04-21T16:31:24.845Z,20.23
2019-04-21T16:33:54.722Z,18.07
2019-04-21T16:36:23.734Z,18.98
2019-04-21T16:38:53.581Z,20.15
2019-04-21T16:41:22.497Z,19.60
2019-04-21T16:43:51.494Z,19.60
2019-04-21T16:46:21.084Z,19.98
2019-04-21T16:48:50.006Z,20.10
2019-04-21T16:51:20.406Z,20.40
2019-04-21T16:53:52.098Z,20.55
2019-04-21T16:56:25.336Z,21.15
2019-04-21T16:58:59.014Z,19.98
2019-04-21T17:01:30.113Z,20.65
2019-04-21T17:04:00.281Z,21.00
2019-04-21T17:06:29.282Z,22.50
2019-04-21T17:08:59.013Z,20.40
2019-04-21T17:11:31.710Z,19.95
2019-04-21T17:14:00.087Z,21.10
2019-04-21T17:16:57.987Z,20.77
2019-04-21T17:19:11.373Z,19.45
2019-04-21T17:21:30.286Z,18.52
2019-04-21T17:23:59.483Z,17.85
2019-04-21T17:26:29.019Z,19.57
2019-04-21T17:28:58.731Z,19.62
2019-04-21T17:31:28.780Z,20.37
2019-04-21T17:34:06.276Z,19.23
2019-04-21T17:36:29.456Z,18.30
2019-04-21T17:38:59.979Z,19.20
2019-04-21T17:41:37.411Z,19.15
2019-04-21T17:44:00.419Z,18.73
2019-04-21T17:46:38.855Z,20.25
2019-04-21T17:49:01.022Z,18.80
2019-04-21T17:51:46.093Z,18.37
2019-04-21T17:54:17.418Z,17.45
2019-04-21T17:57:05.792Z,16.70
2019-04-21T17:59:47.633Z,16.75
2019-04-21T18:02:02.352Z,16.97
2019-04-21T18:04:34.725Z,17.12
2019-04-21T18:07:04.855Z,16.62
2019-04-21T18:09:51.120Z,16.20
2019-04-21T18:12:12.295Z,15.30
2019-04-21T18:14:26.431Z,18.07
2019-04-21T18:16:56.260Z,16.15
2019-04-21T18:19:28.708Z,17.02
2019-04-21T18:22:01.245Z,16.60
2019-04-21T18:24:40.629Z,16.45
2019-04-21T18:27:04.887Z,16.45
2019-04-21T18:29:31.736Z,16.10
2019-04-21T18:32:01.155Z,17.02
2019-04-21T18:34:44.285Z,16.32
2019-04-21T18:37:17.416Z,16.20
2019-04-21T18:40:04.900Z,14.60
2019-04-21T18:42:45.427Z,14.33
2019-04-21T18:48:04.885Z,16.30
2019-04-21T18:50:46.056Z,17.10
2019-04-21T18:53:24.029Z,15.20
2019-04-21T18:55:46.599Z,16.77
2019-04-21T18:58:13.408Z,15.97
2019-04-21T19:00:44.176Z,15.70
2019-04-21T19:03:13.688Z,14.07
2019-04-21T19:05:50.134Z,14.13
2019-04-21T19:08:26.526Z,14.23
2019-04-21T19:11:05.377Z,15.10
2019-04-21T19:16:22.496Z,14.20
2019-04-21T19:18:43.315Z,13.03
2019-04-21T19:21:04.139Z,13.93
2019-04-21T19:23:45.596Z,13.37
2019-04-21T19:26:14.849Z,11.73
2019-04-21T19:28:41.033Z,14.10
2019-04-21T19:31:14.417Z,15.30
2019-04-21T19:33:30.094Z,14.30
2019-04-21T19:35:49.652Z,14.67
2019-04-21T19:38:30.579Z,14.97
2019-04-21T19:41:02.055Z,13.17
2019-04-21T19:43:40.990Z,14.40
2019-04-21T19:46:11.403Z,14.87
2019-04-21T19:48:47.500Z,13.63
2019-04-21T19:51:10.435Z,13.03
2019-04-21T19:53:40.590Z,14.30
2019-04-21T19:55:52.149Z,12.63
2019-04-21T19:58:27.472Z,12.03
2019-04-21T20:00:54.642Z,14.37
2019-04-21T20:03:21.726Z,16.53
2019-04-21T20:06:00.362Z,14.27
2019-04-21T20:08:36.768Z,12.63
2019-04-21T20:11:10.448Z,13.10
2019-04-21T20:13:59.504Z,12.53
2019-04-21T20:16:16.187Z,13.13
2019-04-21T20:18:32.818Z,13.77
2019-04-21T20:20:54.376Z,13.33
2019-04-21T20:23:28.657Z,13.60
2019-04-21T20:25:59.988Z,13.63
2019-04-21T20:28:36.959Z,12.97
2019-04-21T20:31:14.813Z,11.87
2019-04-21T20:33:52.605Z,12.77
2019-04-21T20:36:15.052Z,15.43
2019-04-21T20:38:35.556Z,11.97
2019-04-21T20:41:01.855Z,12.83
2019-04-21T20:43:47.134Z,12.20
2019-04-21T20:46:12.333Z,14.07
2019-04-21T20:48:42.154Z,13.70
2019-04-21T20:51:13.046Z,13.77
2019-04-21T20:53:45.279Z,11.93
2019-04-21T20:56:11.134Z,13.77
2019-04-21T20:58:45.865Z,13.70
2019-04-21T21:03:58.028Z,12.73
2019-04-21T21:06:20.521Z,12.30
2019-04-21T21:08:49.843Z,12.50
2019-04-21T21:11:15.144Z,12.57
2019-04-21T21:13:50.965Z,13.47
2019-04-21T21:16:29.721Z,12.57
2019-04-21T21:19:06.937Z,11.90
2019-04-21T21:21:23.467Z,11.23
2019-04-21T21:23:52.977Z,12.03
2019-04-21T21:26:28.264Z,11.87
2019-04-21T21:28:42.945Z,13.10
2019-04-21T21:31:24.890Z,12.90
2019-04-21T21:34:03.414Z,12.13
2019-04-21T21:36:30.061Z,11.77
2019-04-21T21:38:56.199Z,11.50
2019-04-21T21:41:17.953Z,11.07
2019-04-21T21:43:39.495Z,11.40
2019-04-21T21:46:26.292Z,10.33
2019-04-21T21:48:51.403Z,12.17
2019-04-21T21:51:18.117Z,12.57
2019-04-21T21:53:40.655Z,9.80
2019-04-21T21:56:10.953Z,11.43
2019-04-21T21:58:43.926Z,12.43
2019-04-21T22:01:14.793Z,12.13
2019-04-21T22:03:46.595Z,11.73
2019-04-21T22:06:19.161Z,11.20
2019-04-21T22:08:43.906Z,10.20
2019-04-21T22:11:13.657Z,11.47
2019-04-21T22:13:49.747Z,10.43
2019-04-21T22:16:15.589Z,11.43
2019-04-21T22:19:04.598Z,10.73
2019-04-21T22:21:34.649Z,10.67
2019-04-21T22:23:54.852Z,10.60
2019-04-21T22:26:15.492Z,9.60
2019-04-21T22:28:45.539Z,11.43
2019-04-21T22:31:20.657Z,11.10
2019-04-21T22:33:49.728Z,11.27
2019-04-21T22:36:26.464Z,11.17
2019-04-21T22:39:05.126Z,11.90
2019-04-21T22:41:28.177Z,10.33
2019-04-21T22:43:51.180Z,11.20
2019-04-21T22:46:18.155Z,11.27
2019-04-21T22:48:53.204Z,10.97
2019-04-21T22:51:23.797Z,11.10
2019-04-21T22:53:51.888Z,10.07
2019-04-21T22:56:24.412Z,10.97
2019-04-21T22:58:49.977Z,10.30
2019-04-21T23:01:26.787Z,10.57
2019-04-21T23:03:55.588Z,8.73
2019-04-21T23:06:24.729Z,9.67
2019-04-21T23:08:51.220Z,8.40
2019-04-21T23:11:21.437Z,9.70
2019-04-21T23:13:57.597Z,9.07
2019-04-21T23:16:27.055Z,9.70
2019-04-21T23:19:14.327Z,10.57
2019-04-21T23:21:41.216Z,9.13
2019-04-21T23:24:13.473Z,7.97
2019-04-21T23:26:39.408Z,9.50
2019-04-21T23:29:15.491Z,10.93
2019-04-21T23:31:41.791Z,11.80
2019-04-21T23:33:54.617Z,9.10
2019-04-21T23:36:28.232Z,10.27
2019-04-21T23:38:56.469Z,9.67
2019-04-21T23:41:26.068Z,9.33
2019-04-21T23:43:59.367Z,10.63
2019-04-21T23:46:29.883Z,10.03
2019-04-21T23:49:07.401Z,9.93
2019-04-21T23:51:38.940Z,11.83
2019-04-21T23:53:57.418Z,10.40
2019-04-21T23:56:33.313Z,10.47
2019-04-21T23:59:02.983Z,10.77
